Aviation Digital Data Service (ADDS)

Output produced by METARs form (1113 UTC 28 September 2021)
found at http://www.aviationweather.gov/metar/data/
 
KMSP 280909Z 2809/2912 14005KT P6SM SKC 
     FM281400 15007KT P6SM SKC 
     FM281800 16011KT P6SM SKC 
     FM290000 14007KT P6SM FEW250
       
KRNH 280520Z 2806/2906 VRB03KT P6SM SKC 
     FM281400 16006KT P6SM SKC 
     FM281800 16009KT P6SM SKC 
     FM290000 14006KT P6SM FEW250